createdAt,value
2018-08-19T00:00:45.803Z,1.37
2018-08-19T00:03:14.138Z,1.33
2018-08-19T00:05:42.483Z,1.27
2018-08-19T00:08:10.830Z,1.20
2018-08-19T00:10:57.158Z,1.20
2018-08-19T00:13:25.642Z,1.20
2018-08-19T00:15:53.983Z,1.23
2018-08-19T00:18:22.326Z,1.20
2018-08-19T00:20:50.681Z,1.73
2018-08-19T00:23:19.025Z,1.10
2018-08-19T00:25:47.397Z,1.50
2018-08-19T00:28:16.961Z,1.30
2018-08-19T00:30:45.361Z,1.20
2018-08-19T00:33:13.987Z,1.57
2018-08-19T00:35:42.382Z,1.53
2018-08-19T00:38:11.825Z,1.47
2018-08-19T00:40:40.509Z,2.00
2018-08-19T00:43:08.884Z,1.80
2018-08-19T00:45:37.271Z,2.03
2018-08-19T00:48:05.625Z,1.33
2018-08-19T00:50:34.044Z,1.40
2018-08-19T00:53:02.514Z,1.30
2018-08-19T00:55:38.452Z,1.10
2018-08-19T00:58:13.200Z,1.30
2018-08-19T01:00:41.580Z,1.30
2018-08-19T01:03:10.660Z,1.43
2018-08-19T01:05:39.113Z,1.53
2018-08-19T01:08:08.137Z,1.57
2018-08-19T01:10:36.499Z,1.60
2018-08-19T01:13:04.876Z,1.30
2018-08-19T01:15:33.275Z,1.30
2018-08-19T01:18:01.642Z,1.30
2018-08-19T01:20:30.067Z,1.60
2018-08-19T01:22:58.454Z,1.30
2018-08-19T01:25:27.195Z,1.63
2018-08-19T01:27:55.513Z,1.23
2018-08-19T01:30:25.132Z,1.33
2018-08-19T01:32:53.503Z,1.60
2018-08-19T01:35:26.737Z,1.23
2018-08-19T01:37:55.125Z,1.10
2018-08-19T01:40:23.461Z,0.80
2018-08-19T01:42:51.787Z,1.07
2018-08-19T01:45:20.125Z,1.37
2018-08-19T01:47:48.442Z,1.40
2018-08-19T01:50:17.985Z,1.30
2018-08-19T01:52:48.688Z,1.50
2018-08-19T01:55:17.225Z,1.70
2018-08-19T01:57:47.585Z,1.77
2018-08-19T02:00:16.625Z,1.60
2018-08-19T02:03:05.830Z,1.53
2018-08-19T02:05:34.193Z,1.23
2018-08-19T02:08:03.539Z,1.30
2018-08-19T02:10:32.889Z,1.30
2018-08-19T02:13:01.581Z,1.30
2018-08-19T02:15:31.029Z,1.60
2018-08-19T02:18:01.365Z,1.40
2018-08-19T02:20:35.548Z,1.40
2018-08-19T02:23:05.038Z,1.40
2018-08-19T02:25:34.996Z,1.27
2018-08-19T02:28:04.401Z,1.20
2018-08-19T02:30:33.039Z,1.30
2018-08-19T02:33:01.449Z,1.30
2018-08-19T02:35:29.942Z,2.17
2018-08-19T02:37:58.329Z,1.57
2018-08-19T02:40:31.785Z,1.60
2018-08-19T02:43:00.138Z,1.40
2018-08-19T02:45:28.557Z,1.50
2018-08-19T02:47:56.897Z,2.43
2018-08-19T02:50:25.276Z,1.80
2018-08-19T02:52:53.580Z,1.90
2018-08-19T02:55:23.936Z,1.50
2018-08-19T02:57:56.479Z,1.70
2018-08-19T03:00:24.865Z,2.40
2018-08-19T03:02:53.170Z,1.60
2018-08-19T03:05:21.504Z,1.43
2018-08-19T03:07:49.814Z,1.27
2018-08-19T03:10:18.162Z,1.50
2018-08-19T03:12:46.497Z,2.07
2018-08-19T03:15:15.891Z,1.90
2018-08-19T03:17:47.022Z,1.73
2018-08-19T03:20:15.365Z,1.33
2018-08-19T03:22:43.759Z,1.60
2018-08-19T03:25:12.226Z,1.23
2018-08-19T03:27:40.594Z,1.30
2018-08-19T03:30:10.694Z,1.60
2018-08-19T03:32:48.238Z,1.70
2018-08-19T03:35:17.132Z,1.70
2018-08-19T03:37:45.524Z,1.30
2018-08-19T03:40:13.991Z,1.30
2018-08-19T03:42:42.324Z,1.30
2018-08-19T03:45:16.085Z,1.47
2018-08-19T03:47:44.467Z,2.03
2018-08-19T03:50:18.224Z,1.40
2018-08-19T03:52:46.586Z,1.40
2018-08-19T03:55:20.305Z,1.30
2018-08-19T03:57:49.169Z,1.70
2018-08-19T04:00:18.586Z,1.43
2018-08-19T04:02:47.008Z,1.97
2018-08-19T04:05:15.372Z,2.60
2018-08-19T04:07:44.119Z,2.53
2018-08-19T04:10:12.820Z,2.03
2018-08-19T04:12:41.178Z,2.70
2018-08-19T04:15:10.332Z,1.90
2018-08-19T04:17:38.660Z,1.80
2018-08-19T04:20:07.320Z,1.90
2018-08-19T04:22:35.661Z,1.83
2018-08-19T04:25:04.065Z,1.70
2018-08-19T04:27:32.476Z,1.50
2018-08-19T04:30:00.823Z,1.73
2018-08-19T04:32:31.952Z,1.50
2018-08-19T04:35:01.020Z,1.37
2018-08-19T04:37:29.787Z,1.50
2018-08-19T04:39:59.306Z,1.40
2018-08-19T04:42:27.748Z,1.43
2018-08-19T04:44:56.020Z,1.47
2018-08-19T04:47:30.680Z,1.50
2018-08-19T04:49:59.021Z,1.47
2018-08-19T04:52:27.349Z,1.47
2018-08-19T04:54:56.690Z,1.57
2018-08-19T04:57:25.022Z,1.80
2018-08-19T04:59:53.358Z,1.87
2018-08-19T05:02:21.878Z,1.60
2018-08-19T05:04:50.067Z,1.63
2018-08-19T05:07:18.405Z,1.77
2018-08-19T05:09:46.735Z,1.63
2018-08-19T05:12:15.090Z,2.37
2018-08-19T05:14:43.406Z,2.60
2018-08-19T05:17:11.747Z,2.00
2018-08-19T05:19:40.052Z,2.23
2018-08-19T05:22:14.685Z,1.60
2018-08-19T05:24:44.401Z,2.50
2018-08-19T05:27:17.310Z,2.60
2018-08-19T05:29:45.629Z,1.70
2018-08-19T05:32:14.842Z,1.83
2018-08-19T05:34:43.440Z,1.83
2018-08-19T05:37:11.814Z,2.53
2018-08-19T05:39:51.198Z,2.20
2018-08-19T05:42:19.521Z,2.00
2018-08-19T05:44:47.824Z,2.53
2018-08-19T05:47:17.384Z,1.90
2018-08-19T05:49:46.677Z,1.87
2018-08-19T05:52:16.944Z,1.63
2018-08-19T05:54:50.649Z,1.70
2018-08-19T05:57:19.021Z,2.90
2018-08-19T05:59:48.885Z,2.43
2018-08-19T06:02:19.166Z,2.40
2018-08-19T06:04:47.473Z,3.50
2018-08-19T06:07:15.841Z,4.20
2018-08-19T06:09:44.225Z,2.70
2018-08-19T06:12:12.582Z,2.60
2018-08-19T06:14:40.921Z,2.13
2018-08-19T06:17:09.264Z,2.97
2018-08-19T06:19:37.577Z,2.70
2018-08-19T06:22:06.128Z,2.70
2018-08-19T06:24:34.427Z,3.00
2018-08-19T06:27:02.750Z,2.00
2018-08-19T06:29:43.468Z,2.40
2018-08-19T06:32:15.792Z,1.90
2018-08-19T06:34:44.161Z,2.17
2018-08-19T06:37:12.473Z,2.50
2018-08-19T06:39:40.777Z,2.40
2018-08-19T06:42:09.101Z,2.33
2018-08-19T06:44:37.432Z,2.27
2018-08-19T06:47:05.981Z,2.13
2018-08-19T06:49:34.557Z,2.27
2018-08-19T06:52:02.923Z,1.67
2018-08-19T06:54:31.263Z,3.60
2018-08-19T06:56:59.673Z,3.47
2018-08-19T06:59:28.130Z,2.60
2018-08-19T07:01:57.196Z,5.60
2018-08-19T07:04:25.579Z,3.50
2018-08-19T07:06:53.912Z,2.53
2018-08-19T07:09:22.245Z,2.83
2018-08-19T07:12:00.712Z,2.70
2018-08-19T07:14:29.825Z,2.13
2018-08-19T07:16:58.954Z,2.50
2018-08-19T07:19:27.460Z,2.50
2018-08-19T07:22:00.132Z,3.53
2018-08-19T07:24:28.673Z,3.77
2018-08-19T07:26:57.769Z,4.97
2018-08-19T07:29:27.304Z,3.57
2018-08-19T07:31:56.337Z,2.60
2018-08-19T07:34:24.720Z,2.50
2018-08-19T07:36:54.122Z,3.10
2018-08-19T07:39:22.518Z,2.13
2018-08-19T07:41:50.856Z,3.20
2018-08-19T07:44:19.222Z,2.90
2018-08-19T07:46:47.590Z,5.53
2018-08-19T07:49:15.929Z,7.63
2018-08-19T07:51:44.383Z,7.63
2018-08-19T07:54:12.712Z,6.03
2018-08-19T07:56:41.038Z,8.13
2018-08-19T07:59:10.825Z,5.50
2018-08-19T08:01:40.020Z,5.43
2018-08-19T08:04:08.656Z,3.00
2018-08-19T08:06:37.325Z,2.37
2018-08-19T08:09:09.909Z,4.10
2018-08-19T08:11:38.249Z,5.47
2018-08-19T08:14:06.623Z,3.83
2018-08-19T08:16:42.338Z,3.40
2018-08-19T08:19:10.740Z,2.80
2018-08-19T08:21:39.217Z,3.57
2018-08-19T08:24:09.621Z,2.73
2018-08-19T08:26:42.238Z,2.87
2018-08-19T08:29:10.599Z,3.67
2018-08-19T08:31:44.234Z,2.43
2018-08-19T08:34:12.574Z,2.23
2018-08-19T08:36:41.754Z,2.87
2018-08-19T08:39:10.401Z,4.17
2018-08-19T08:41:38.715Z,2.97
2018-08-19T08:44:07.045Z,2.47
2018-08-19T08:46:35.351Z,2.13
2018-08-19T08:49:03.703Z,2.23
2018-08-19T08:51:32.024Z,1.50
2018-08-19T08:54:00.368Z,1.30
2018-08-19T08:56:28.748Z,2.27
2018-08-19T08:58:57.052Z,3.83
2018-08-19T09:01:25.396Z,4.47
2018-08-19T09:03:53.786Z,4.83
2018-08-19T09:06:28.004Z,3.13
2018-08-19T09:08:56.600Z,3.90
2018-08-19T09:11:24.921Z,3.80
2018-08-19T09:13:53.735Z,2.40
2018-08-19T09:16:22.048Z,2.80
2018-08-19T09:18:50.597Z,2.77
2018-08-19T09:21:25.665Z,4.63
2018-08-19T09:23:54.013Z,2.40
2018-08-19T09:26:22.334Z,3.03
2018-08-19T09:28:50.672Z,2.70
2018-08-19T09:31:19.009Z,2.13
2018-08-19T09:33:47.373Z,2.67
2018-08-19T09:36:15.741Z,2.97
2018-08-19T09:38:44.112Z,2.77
2018-08-19T09:41:12.417Z,2.73
2018-08-19T09:43:40.740Z,3.67
2018-08-19T09:46:09.061Z,3.43
2018-08-19T09:48:37.409Z,5.07
2018-08-19T09:51:14.050Z,4.43
2018-08-19T09:53:42.424Z,4.43
2018-08-19T09:56:11.483Z,4.77
2018-08-19T09:58:40.421Z,2.53
2018-08-19T10:01:14.581Z,7.30
2018-08-19T10:03:51.650Z,3.27
2018-08-19T10:06:19.989Z,4.97
2018-08-19T10:08:48.351Z,3.37
2018-08-19T10:11:16.707Z,7.07
2018-08-19T10:13:45.874Z,2.80
2018-08-19T10:16:14.200Z,4.47
2018-08-19T10:18:42.543Z,3.53
2018-08-19T10:21:18.268Z,5.37
2018-08-19T10:23:46.632Z,2.70
2018-08-19T10:26:14.994Z,3.80
2018-08-19T10:28:43.349Z,4.03
2018-08-19T10:31:18.936Z,3.03
2018-08-19T10:33:50.550Z,2.40
2018-08-19T10:36:18.887Z,3.70
2018-08-19T10:38:47.280Z,4.00
2018-08-19T10:41:15.618Z,3.90
2018-08-19T10:43:43.950Z,4.00
2018-08-19T10:46:12.336Z,2.00
2018-08-19T10:48:40.630Z,2.83
2018-08-19T10:51:08.964Z,3.67
2018-08-19T10:53:37.299Z,3.70
2018-08-19T10:56:05.696Z,4.37
2018-08-19T10:58:34.110Z,5.67
2018-08-19T11:01:02.453Z,2.23
2018-08-19T11:03:30.801Z,1.50
2018-08-19T11:05:59.176Z,3.20
2018-08-19T11:08:27.513Z,3.73
2018-08-19T11:10:55.881Z,2.13
2018-08-19T11:13:25.112Z,2.73
2018-08-19T11:15:56.382Z,3.90
2018-08-19T11:18:30.601Z,2.33
2018-08-19T11:22:04.858Z,2.77
2018-08-19T11:24:33.805Z,2.47
2018-08-19T11:27:03.324Z,2.07
2018-08-19T11:29:36.033Z,2.60
2018-08-19T11:32:04.425Z,2.90
2018-08-19T11:34:32.811Z,1.87
2018-08-19T11:37:01.134Z,2.80
2018-08-19T11:39:34.850Z,1.80
2018-08-19T11:42:03.200Z,2.30
2018-08-19T11:44:34.550Z,2.00
2018-08-19T11:47:02.893Z,2.03
2018-08-19T11:49:31.221Z,2.60
2018-08-19T11:52:01.605Z,1.83
2018-08-19T11:54:30.832Z,2.93
2018-08-19T11:57:07.307Z,2.83
2018-08-19T11:59:40.952Z,2.57
2018-08-19T12:02:13.628Z,2.43
2018-08-19T12:04:41.965Z,2.50
2018-08-19T12:07:10.274Z,3.67
2018-08-19T12:09:45.978Z,2.67
2018-08-19T12:12:14.189Z,3.17
2018-08-19T12:14:42.535Z,2.13
2018-08-19T12:17:11.941Z,1.30
2018-08-19T12:19:42.628Z,2.10
2018-08-19T12:22:11.109Z,1.33
2018-08-19T12:24:42.401Z,2.23
2018-08-19T12:27:12.148Z,2.27
2018-08-19T12:29:41.459Z,2.87
2018-08-19T12:32:16.552Z,1.73
2018-08-19T12:34:53.096Z,1.60
2018-08-19T12:37:22.572Z,1.20
2018-08-19T12:39:51.274Z,1.62
2018-08-19T12:42:19.623Z,3.35
2018-08-19T12:44:50.373Z,1.90
2018-08-19T12:47:21.993Z,1.60
2018-08-19T12:49:52.766Z,2.35
2018-08-19T12:52:22.988Z,4.25
2018-08-19T12:54:56.793Z,1.15
2018-08-19T12:57:25.531Z,2.58
2018-08-19T12:59:58.078Z,2.00
2018-08-19T13:02:26.856Z,2.02
2018-08-19T13:04:55.255Z,3.02
2018-08-19T13:07:23.568Z,1.92
2018-08-19T13:09:51.934Z,1.40
2018-08-19T13:12:20.317Z,2.30
2018-08-19T13:14:48.685Z,2.27
2018-08-19T13:17:17.058Z,1.50
2018-08-19T13:19:50.452Z,3.00
2018-08-19T13:22:18.809Z,2.30
2018-08-19T13:24:47.125Z,3.20
2018-08-19T13:27:15.499Z,2.50
2018-08-19T13:29:43.838Z,2.55
2018-08-19T13:32:12.175Z,1.80
2018-08-19T13:34:40.493Z,1.45
2018-08-19T13:37:08.828Z,1.50
2018-08-19T13:39:37.152Z,2.72
2018-08-19T13:42:05.559Z,1.45
2018-08-19T13:44:33.916Z,1.20
2018-08-19T13:47:02.308Z,1.60
2018-08-19T13:49:30.622Z,2.80
2018-08-19T13:52:00.990Z,2.02
2018-08-19T13:54:29.357Z,2.02
2018-08-19T13:56:57.729Z,1.57
2018-08-19T13:59:26.055Z,2.22
2018-08-19T14:01:54.418Z,1.52
2018-08-19T14:04:22.736Z,1.40
2018-08-19T14:06:51.092Z,1.62
2018-08-19T14:09:19.445Z,3.10
2018-08-19T14:11:47.811Z,1.60
2018-08-19T14:14:16.168Z,1.45
2018-08-19T14:16:44.509Z,1.05
2018-08-19T14:19:12.854Z,2.70
2018-08-19T14:21:41.182Z,2.65
2018-08-19T14:24:09.508Z,1.92
2018-08-19T14:26:37.846Z,2.05
2018-08-19T14:29:06.178Z,3.37
2018-08-19T14:31:34.561Z,2.10
2018-08-19T14:34:02.904Z,1.42
2018-08-19T14:36:31.247Z,2.05
2018-08-19T14:38:59.569Z,1.55
2018-08-19T14:41:27.898Z,1.90
2018-08-19T14:44:02.320Z,1.40
2018-08-19T14:46:31.547Z,1.40
2018-08-19T14:49:01.198Z,1.40
2018-08-19T14:51:32.437Z,2.22
2018-08-19T14:54:14.438Z,2.67
2018-08-19T14:56:42.802Z,1.95
2018-08-19T14:59:11.724Z,1.10
2018-08-19T15:01:40.072Z,1.52
2018-08-19T15:04:11.726Z,1.30
2018-08-19T15:06:40.569Z,1.10
2018-08-19T15:09:12.839Z,2.42
2018-08-19T15:11:41.171Z,1.77
2018-08-19T15:14:15.871Z,2.08
2018-08-19T15:16:46.837Z,1.98
2018-08-19T15:19:15.337Z,1.55
2018-08-19T15:21:45.824Z,1.90
2018-08-19T15:24:14.147Z,1.50
2018-08-19T15:26:42.482Z,1.77
2018-08-19T15:29:15.215Z,2.00
2018-08-19T15:31:43.576Z,2.08
2018-08-19T15:34:11.888Z,1.77
2018-08-19T15:36:40.232Z,2.65
2018-08-19T15:39:09.330Z,1.47
2018-08-19T15:41:37.664Z,0.90
2018-08-19T15:44:05.981Z,1.80
2018-08-19T15:46:34.380Z,1.10
2018-08-19T15:49:02.715Z,1.20
2018-08-19T15:51:31.069Z,1.30
2018-08-19T15:53:59.382Z,0.95
2018-08-19T15:56:28.180Z,1.00
2018-08-19T15:58:56.504Z,1.10
2018-08-19T16:01:28.293Z,1.17
2018-08-19T16:04:03.757Z,1.00
2018-08-19T16:06:32.127Z,0.80
2018-08-19T16:09:00.525Z,1.50
2018-08-19T16:11:28.968Z,1.10
2018-08-19T16:13:57.273Z,1.07
2018-08-19T16:16:25.644Z,0.93
2018-08-19T16:18:55.351Z,1.20
2018-08-19T16:21:23.660Z,1.30
2018-08-19T16:23:51.986Z,1.03
2018-08-19T16:26:20.303Z,0.93
2018-08-19T16:28:48.649Z,0.70
2018-08-19T16:31:16.984Z,0.70
2018-08-19T16:33:45.355Z,0.80
2018-08-19T16:36:13.709Z,0.80
2018-08-19T16:38:42.040Z,0.87
2018-08-19T16:41:10.368Z,0.90
2018-08-19T16:43:38.729Z,1.07
2018-08-19T16:46:07.053Z,0.73
2018-08-19T16:48:35.409Z,0.90
2018-08-19T16:51:03.802Z,0.90
2018-08-19T16:53:32.116Z,1.30
2018-08-19T16:56:00.436Z,1.00
2018-08-19T16:58:28.753Z,0.90
2018-08-19T17:00:57.109Z,1.67
2018-08-19T17:03:44.397Z,1.13
2018-08-19T17:06:14.557Z,0.80
2018-08-19T17:08:43.385Z,0.80
2018-08-19T17:11:12.936Z,0.80
2018-08-19T17:13:41.422Z,0.83
2018-08-19T17:16:09.855Z,1.00
2018-08-19T17:18:38.188Z,1.10
2018-08-19T17:21:06.781Z,0.70
2018-08-19T17:23:35.501Z,0.87
2018-08-19T17:26:05.384Z,0.50
2018-08-19T17:28:33.748Z,1.17
2018-08-19T17:31:02.077Z,0.67
2018-08-19T17:33:31.536Z,0.93
2018-08-19T17:35:59.852Z,0.70
2018-08-19T17:38:32.958Z,0.80
2018-08-19T17:41:01.845Z,0.73
2018-08-19T17:43:34.400Z,0.70
2018-08-19T17:46:08.353Z,0.60
2018-08-19T17:48:38.130Z,0.80
2018-08-19T17:51:18.209Z,0.77
2018-08-19T17:53:46.997Z,1.10
2018-08-19T17:56:15.387Z,1.13
2018-08-19T17:58:43.717Z,0.60
2018-08-19T18:01:12.060Z,0.80
2018-08-19T18:03:40.430Z,0.70
2018-08-19T18:06:08.745Z,0.90
2018-08-19T18:08:37.121Z,1.07
2018-08-19T18:11:07.769Z,0.70
2018-08-19T18:13:36.105Z,0.80
2018-08-19T18:16:04.448Z,0.70
2018-08-19T18:18:32.785Z,0.83
2018-08-19T18:21:03.864Z,0.70
2018-08-19T18:23:32.286Z,0.70
2018-08-19T18:26:00.596Z,0.80
2018-08-19T18:28:31.082Z,0.80
2018-08-19T18:31:04.247Z,0.70
2018-08-19T18:33:32.629Z,0.70
2018-08-19T18:36:00.944Z,0.63
2018-08-19T18:38:31.017Z,0.70
2018-08-19T18:40:59.348Z,1.17
2018-08-19T18:43:27.685Z,0.83
2018-08-19T18:45:56.075Z,1.00
2018-08-19T18:48:24.362Z,0.90
2018-08-19T18:50:54.761Z,0.80
2018-08-19T18:53:23.537Z,0.70
2018-08-19T18:55:51.833Z,0.80
2018-08-19T18:58:20.214Z,0.70
2018-08-19T19:00:56.797Z,0.83
2018-08-19T19:03:25.286Z,0.93
2018-08-19T19:05:56.503Z,0.50
2018-08-19T19:08:24.848Z,0.80
2018-08-19T19:10:58.755Z,0.90
2018-08-19T19:13:27.626Z,0.70
2018-08-19T19:15:55.961Z,1.20
2018-08-19T19:18:24.326Z,0.83
2018-08-19T19:20:58.057Z,0.90
2018-08-19T19:23:31.762Z,0.73
2018-08-19T19:26:00.328Z,0.80
2018-08-19T19:28:28.964Z,0.90
2018-08-19T19:31:02.503Z,0.67
2018-08-19T19:33:30.853Z,0.70
2018-08-19T19:36:05.887Z,1.00
2018-08-19T19:38:37.497Z,0.97
2018-08-19T19:41:09.550Z,1.43
2018-08-19T19:43:37.959Z,0.80
2018-08-19T19:46:06.342Z,1.00
2018-08-19T19:48:34.674Z,1.13
2018-08-19T19:51:03.162Z,0.80
2018-08-19T19:53:31.536Z,0.90
2018-08-19T19:56:31.497Z,0.90
2018-08-19T19:58:59.837Z,1.10
2018-08-19T20:01:28.169Z,0.90
2018-08-19T20:03:56.512Z,0.90
2018-08-19T20:06:25.141Z,0.90
2018-08-19T20:08:53.537Z,1.03
2018-08-19T20:11:30.042Z,0.83
2018-08-19T20:13:59.581Z,0.70
2018-08-19T20:16:27.909Z,1.17
2018-08-19T20:18:56.311Z,1.17
2018-08-19T20:21:25.756Z,1.00
2018-08-19T20:23:55.580Z,0.93
2018-08-19T20:26:24.673Z,0.87
2018-08-19T20:28:54.633Z,1.07
2018-08-19T20:31:22.955Z,0.83
2018-08-19T20:33:51.318Z,1.60
2018-08-19T20:36:19.779Z,1.27
2018-08-19T20:38:48.136Z,1.20
2018-08-19T20:41:16.562Z,1.00
2018-08-19T20:43:44.919Z,1.57
2018-08-19T20:46:13.256Z,1.73
2018-08-19T20:48:41.602Z,1.77
2018-08-19T20:51:09.916Z,1.10
2018-08-19T20:53:38.364Z,1.10
2018-08-19T20:56:06.694Z,1.30
2018-08-19T20:58:35.058Z,1.10
2018-08-19T21:01:03.452Z,0.90
2018-08-19T21:03:31.767Z,1.10
2018-08-19T21:06:00.108Z,1.10
2018-08-19T21:08:28.421Z,1.00
2018-08-19T21:10:56.760Z,1.10
2018-08-19T21:13:25.085Z,1.10
2018-08-19T21:15:55.323Z,0.83
2018-08-19T21:18:23.632Z,1.20
2018-08-19T21:20:53.072Z,1.33
2018-08-19T21:23:21.400Z,1.10
2018-08-19T21:25:55.231Z,1.13
2018-08-19T21:28:23.540Z,0.90
2018-08-19T21:30:51.868Z,1.07
2018-08-19T21:33:20.244Z,1.43
2018-08-19T21:35:52.584Z,1.20
2018-08-19T21:38:20.955Z,0.80
2018-08-19T21:40:52.299Z,2.07
2018-08-19T21:43:21.008Z,1.40
2018-08-19T21:45:51.037Z,1.37
2018-08-19T21:48:19.414Z,1.40
2018-08-19T21:50:47.775Z,1.40
2018-08-19T21:53:18.292Z,2.10
2018-08-19T21:55:49.692Z,1.50
2018-08-19T21:58:18.099Z,1.33
2018-08-19T22:00:54.009Z,1.80
2018-08-19T22:03:27.829Z,1.20
2018-08-19T22:05:56.177Z,1.50
2018-08-19T22:08:24.789Z,1.77
2018-08-19T22:10:53.205Z,1.13
2018-08-19T22:13:21.580Z,1.50
2018-08-19T22:15:49.964Z,1.50
2018-08-19T22:18:19.556Z,1.63
2018-08-19T22:21:02.098Z,1.33
2018-08-19T22:23:35.914Z,1.53
2018-08-19T22:26:04.292Z,1.33
2018-08-19T22:28:33.039Z,1.50
2018-08-19T22:31:12.785Z,1.77
2018-08-19T22:33:41.097Z,2.03
2018-08-19T22:36:09.450Z,1.63
2018-08-19T22:38:37.774Z,2.00
2018-08-19T22:41:06.108Z,2.00
2018-08-19T22:43:34.440Z,1.97
2018-08-19T22:46:02.774Z,1.70
2018-08-19T22:48:39.597Z,1.70
2018-08-19T22:51:08.385Z,1.50
2018-08-19T22:53:36.716Z,1.73
2018-08-19T22:56:05.244Z,1.50
2018-08-19T22:58:34.046Z,2.30
2018-08-19T23:01:02.450Z,2.43
2018-08-19T23:03:30.974Z,1.73
2018-08-19T23:05:59.333Z,1.70
2018-08-19T23:08:29.925Z,2.00
2018-08-19T23:10:59.258Z,1.67
2018-08-19T23:13:39.002Z,2.63
2018-08-19T23:16:09.215Z,1.70
2018-08-19T23:18:38.177Z,1.80
2018-08-19T23:21:06.674Z,1.73
2018-08-19T23:23:35.003Z,2.00
2018-08-19T23:26:03.865Z,1.90
2018-08-19T23:28:32.174Z,1.60
2018-08-19T23:31:00.519Z,2.17
2018-08-19T23:33:28.854Z,2.00
2018-08-19T23:35:57.212Z,2.10
2018-08-19T23:38:25.528Z,1.90
2018-08-19T23:40:53.868Z,1.87
2018-08-19T23:43:22.192Z,1.80
2018-08-19T23:45:50.550Z,2.00
2018-08-19T23:48:18.970Z,1.90
2018-08-19T23:50:47.338Z,1.60
2018-08-19T23:53:15.691Z,2.40
2018-08-19T23:55:44.029Z,6.13
2018-08-19T23:58:12.357Z,2.93
